Time;durP1;ratioP1;P1;durP2;ratioP2;P2;SDS_P1;SDS_P2;PMS_P1;PMS_P2;Temp;Humidity;BMP_temperature;BMP_pressure;BME280_temperature;BME280_humidity;BME280_pressure;Samples;Min_cycle;Max_cycle;Signal;HPM_P1;HPM_P2
2022/07/01 00:01:22;;;;;;;25.25;13.75;;;;;;;;;;5071326;28;20028;-57
2022/07/01 00:03:49;;;;;;;12.77;7.55;;;;;;;;;;5071784;28;20033;-57
2022/07/01 00:06:15;;;;;;;14.10;6.70;;;;;;;;;;5071714;28;20025;-66
2022/07/01 00:08:41;;;;;;;11.90;5.85;;;;;;;;;;5071451;28;20518;-60
2022/07/01 00:11:07;;;;;;;9.38;6.40;;;;;;;;;;5071483;28;20107;-58
2022/07/01 00:13:34;;;;;;;12.52;6.95;;;;;;;;;;5071493;28;20028;-58
2022/07/01 00:16:00;;;;;;;12.32;6.72;;;;;;;;;;5071386;28;20162;-59
2022/07/01 00:18:26;;;;;;;11.35;6.38;;;;;;;;;;5071298;28;20017;-64
2022/07/01 00:20:52;;;;;;;12.18;7.80;;;;;;;;;;5071512;28;20115;-58
2022/07/01 00:23:18;;;;;;;11.55;7.00;;;;;;;;;;5070939;28;20388;-63
2022/07/01 00:25:44;;;;;;;10.38;6.43;;;;;;;;;;5071179;28;20029;-58
2022/07/01 00:28:11;;;;;;;9.15;5.97;;;;;;;;;;5070879;28;20088;-58
2022/07/01 00:30:37;;;;;;;12.05;7.07;;;;;;;;;;5071329;28;20021;-66
2022/07/01 00:33:03;;;;;;;13.95;7.35;;;;;;;;;;5071133;28;20060;-59
2022/07/01 00:35:29;;;;;;;27.63;15.43;;;;;;;;;;5071345;28;20454;-65
2022/07/01 00:37:55;;;;;;;10.30;5.20;;;;;;;;;;5071417;28;20089;-65
2022/07/01 00:40:21;;;;;;;8.60;5.40;;;;;;;;;;5071206;28;20039;-59
2022/07/01 00:42:47;;;;;;;10.43;5.20;;;;;;;;;;5070976;28;20098;-63
2022/07/01 00:45:14;;;;;;;6.82;4.90;;;;;;;;;;5070982;28;20024;-58
2022/07/01 00:47:40;;;;;;;9.55;5.07;;;;;;;;;;5070897;28;20067;-59
2022/07/01 00:50:11;;;;;;;11.55;6.25;;;;;;;;;;5070418;28;20468;-62
2022/07/01 00:52:37;;;;;;;10.05;6.13;;;;;;;;;;5071041;28;20029;-65
2022/07/01 00:55:04;;;;;;;9.10;6.78;;;;;;;;;;5070938;28;20020;-65
2022/07/01 00:57:34;;;;;;;8.55;5.47;;;;;;;;;;5070835;28;20025;-65
2022/07/01 01:00:01;;;;;;;11.55;5.53;;;;;;;;;;5072789;28;20387;-65
2022/07/01 01:02:27;;;;;;;9.80;5.10;;;;;;;;;;5074865;28;20532;-58
2022/07/01 01:04:53;;;;;;;8.23;5.25;;;;;;;;;;5074796;28;20499;-62
2022/07/01 01:07:19;;;;;;;10.02;5.85;;;;;;;;;;5074712;28;20503;-67
2022/07/01 01:09:45;;;;;;;11.45;6.20;;;;;;;;;;5074748;28;20103;-60
2022/07/01 01:12:13;;;;;;;10.55;5.93;;;;;;;;;;5074759;28;20441;-60
2022/07/01 01:14:46;;;;;;;10.15;6.15;;;;;;;;;;5074675;28;20057;-66
2022/07/01 01:17:13;;;;;;;8.95;5.63;;;;;;;;;;5074738;28;20499;-60
2022/07/01 01:19:39;;;;;;;9.80;5.68;;;;;;;;;;5074834;28;20454;-59
2022/07/01 01:22:05;;;;;;;10.68;5.30;;;;;;;;;;5074563;28;20499;-59
2022/07/01 01:24:31;;;;;;;8.57;5.90;;;;;;;;;;5074194;28;20399;-64
2022/07/01 01:26:57;;;;;;;11.02;5.93;;;;;;;;;;5074249;28;20357;-65
2022/07/01 01:29:23;;;;;;;11.98;6.45;;;;;;;;;;5074304;28;20400;-62
2022/07/01 01:31:49;;;;;;;12.77;7.00;;;;;;;;;;5074669;28;20029;-64
2022/07/01 01:34:15;;;;;;;12.93;6.90;;;;;;;;;;5074421;28;20161;-58
2022/07/01 01:36:41;;;;;;;11.25;6.65;;;;;;;;;;5074231;28;20086;-65
2022/07/01 01:41:36;;;;;;;13.15;6.47;;;;;;;;;;5074246;28;20032;-58
2022/07/01 01:44:02;;;;;;;11.20;6.60;;;;;;;;;;5074219;28;20036;-66
2022/07/01 01:46:29;;;;;;;11.85;6.10;;;;;;;;;;5074483;28;20035;-67
2022/07/01 01:48:56;;;;;;;11.82;6.35;;;;;;;;;;5074325;28;20063;-66
2022/07/01 01:51:22;;;;;;;8.73;6.60;;;;;;;;;;5074164;28;20033;-63
2022/07/01 01:53:48;;;;;;;18.77;13.05;;;;;;;;;;5073800;28;20024;-61
2022/07/01 01:56:14;;;;;;;13.85;7.90;;;;;;;;;;5074235;28;20047;-63
2022/07/01 01:58:44;;;;;;;11.13;6.50;;;;;;;;;;5074174;28;20460;-58
2022/07/01 02:01:10;;;;;;;12.02;6.50;;;;;;;;;;5074488;28;20659;-67
2022/07/01 02:03:37;;;;;;;11.70;6.63;;;;;;;;;;5075677;28;20025;-59
2022/07/01 02:06:04;;;;;;;13.27;5.97;;;;;;;;;;5074811;28;20023;-59
2022/07/01 02:08:30;;;;;;;10.32;5.57;;;;;;;;;;5073707;28;20115;-66
2022/07/01 02:10:56;;;;;;;8.35;6.22;;;;;;;;;;5072844;28;20025;-66
2022/07/01 02:13:22;;;;;;;8.15;5.57;;;;;;;;;;5073940;28;20032;-66
2022/07/01 02:15:49;;;;;;;12.57;7.70;;;;;;;;;;5073780;28;20392;-67
2022/07/01 02:18:15;;;;;;;11.40;7.03;;;;;;;;;;5073502;28;20025;-59
2022/07/01 02:20:42;;;;;;;10.07;6.65;;;;;;;;;;5073688;28;20040;-62
2022/07/01 02:23:08;;;;;;;10.23;6.35;;;;;;;;;;5073401;28;20082;-64
2022/07/01 02:25:35;;;;;;;9.43;6.35;;;;;;;;;;5073705;28;20028;-59
2022/07/01 02:28:01;;;;;;;10.68;6.32;;;;;;;;;;5072894;28;20068;-59
2022/07/01 02:30:28;;;;;;;12.60;6.28;;;;;;;;;;5073247;28;20111;-67
2022/07/01 02:32:54;;;;;;;11.15;6.55;;;;;;;;;;5073266;28;20115;-66
2022/07/01 02:35:20;;;;;;;13.85;7.32;;;;;;;;;;5073415;28;20028;-66
2022/07/01 02:37:46;;;;;;;10.88;6.80;;;;;;;;;;5073308;28;20051;-67
2022/07/01 02:40:13;;;;;;;11.80;7.07;;;;;;;;;;5073042;28;20025;-64
2022/07/01 02:42:39;;;;;;;10.23;7.38;;;;;;;;;;5072942;28;20028;-60
2022/07/01 02:45:07;;;;;;;13.40;7.50;;;;;;;;;;5072990;28;20099;-67
2022/07/01 02:47:37;;;;;;;12.25;6.85;;;;;;;;;;5072783;28;20127;-65
2022/07/01 02:50:04;;;;;;;11.93;7.28;;;;;;;;;;5072572;28;20027;-59
2022/07/01 02:52:30;;;;;;;17.23;8.10;;;;;;;;;;5072774;28;20119;-58
2022/07/01 02:54:56;;;;;;;14.80;7.95;;;;;;;;;;5072846;28;20522;-58
2022/07/01 02:57:23;;;;;;;14.18;7.38;;;;;;;;;;5072697;28;20032;-59
2022/07/01 02:59:50;;;;;;;11.77;7.38;;;;;;;;;;5072796;28;20038;-60
2022/07/01 03:02:17;;;;;;;17.63;7.97;;;;;;;;;;5072617;28;20426;-66
2022/07/01 03:04:44;;;;;;;14.07;7.53;;;;;;;;;;5072585;28;20032;-58
2022/07/01 03:07:10;;;;;;;17.00;8.15;;;;;;;;;;5072607;28;20033;-60
2022/07/01 03:09:36;;;;;;;14.02;8.18;;;;;;;;;;5072756;28;20017;-65
2022/07/01 03:12:24;;;;;;;14.10;8.23;;;;;;;;;;5072504;28;20024;-57
2022/07/01 03:14:48;;;;;;;16.48;8.45;;;;;;;;;;5072318;28;20044;-58
2022/07/01 03:17:14;;;;;;;11.95;8.75;;;;;;;;;;5072525;28;20384;-58
2022/07/01 03:19:40;;;;;;;14.95;7.65;;;;;;;;;;5072908;28;20036;-61
2022/07/01 03:22:06;;;;;;;13.00;7.78;;;;;;;;;;5072460;28;20033;-67
2022/07/01 03:24:32;;;;;;;14.27;8.07;;;;;;;;;;5072340;28;20037;-65
2022/07/01 03:26:59;;;;;;;24.98;16.13;;;;;;;;;;5071945;28;20121;-59
2022/07/01 03:29:25;;;;;;;18.65;10.90;;;;;;;;;;5072186;28;20527;-67
2022/07/01 03:31:51;;;;;;;19.95;10.68;;;;;;;;;;5071887;28;20032;-59
2022/07/01 03:34:17;;;;;;;15.13;8.20;;;;;;;;;;5072480;28;20111;-60
2022/07/01 03:36:43;;;;;;;14.25;8.40;;;;;;;;;;5072185;28;20032;-69
2022/07/01 03:39:09;;;;;;;13.80;8.48;;;;;;;;;;5072224;28;20480;-72
2022/07/01 03:41:35;;;;;;;17.77;8.90;;;;;;;;;;5071968;28;20103;-70
2022/07/01 03:44:01;;;;;;;20.25;8.43;;;;;;;;;;5071879;28;20033;-62
2022/07/01 03:46:31;;;;;;;17.35;8.55;;;;;;;;;;5053790;28;20083;-66
2022/07/01 03:48:57;;;;;;;16.52;8.60;;;;;;;;;;5071942;28;20078;-72
2022/07/01 03:51:23;;;;;;;18.02;8.30;;;;;;;;;;5071896;28;20074;-67
2022/07/01 03:56:34;;;;;;;19.25;8.93;;;;;;;;;;5071700;28;20063;-73
2022/07/01 03:59:00;;;;;;;16.65;8.05;;;;;;;;;;5071938;28;20078;-70
2022/07/01 04:01:26;;;;;;;15.50;7.55;;;;;;;;;;5071375;28;20028;-71
2022/07/01 04:03:52;;;;;;;16.70;8.02;;;;;;;;;;5071832;28;20054;-62
2022/07/01 04:06:18;;;;;;;15.52;8.20;;;;;;;;;;5071425;28;20024;-68
2022/07/01 04:08:45;;;;;;;15.57;8.35;;;;;;;;;;5071357;28;20040;-64
2022/07/01 04:11:11;;;;;;;15.95;8.32;;;;;;;;;;5071403;28;20017;-64
2022/07/01 04:13:37;;;;;;;19.92;8.35;;;;;;;;;;5071357;28;20111;-64
2022/07/01 04:16:03;;;;;;;15.30;7.60;;;;;;;;;;5071684;28;20443;-75
2022/07/01 04:18:30;;;;;;;15.90;7.47;;;;;;;;;;5071686;28;20025;-63
2022/07/01 04:23:40;;;;;;;18.15;8.00;;;;;;;;;;5071364;28;20028;-62
2022/07/01 04:26:06;;;;;;;15.52;7.90;;;;;;;;;;5071731;28;20097;-74
2022/07/01 04:28:32;;;;;;;12.15;7.00;;;;;;;;;;5070882;28;20056;-70
2022/07/01 04:30:59;;;;;;;11.73;6.93;;;;;;;;;;5071550;28;20020;-73
2022/07/01 04:33:25;;;;;;;14.95;7.13;;;;;;;;;;5071407;28;20028;-73
2022/07/01 04:35:52;;;;;;;15.70;7.13;;;;;;;;;;5071119;28;20029;-61
2022/07/01 04:38:18;;;;;;;13.27;6.95;;;;;;;;;;5071174;28;20037;-74
2022/07/01 04:41:58;;;;;;;17.23;6.63;;;;;;;;;;5053092;28;20400;-69
2022/07/01 04:43:30;;;;;;;14.50;6.85;;;;;;;;;;5070885;28;20061;-74
2022/07/01 04:45:56;;;;;;;21.85;6.90;;;;;;;;;;5071176;28;20021;-75
2022/07/01 04:48:22;;;;;;;12.43;6.53;;;;;;;;;;5071049;28;20028;-63
2022/07/01 04:50:48;;;;;;;17.77;6.97;;;;;;;;;;5071248;28;20102;-69
2022/07/01 04:53:15;;;;;;;12.15;6.70;;;;;;;;;;5071030;28;20067;-62
2022/07/01 04:55:41;;;;;;;11.25;6.07;;;;;;;;;;5070891;28;20479;-75
2022/07/01 04:58:07;;;;;;;11.57;6.35;;;;;;;;;;5071047;28;20480;-64
2022/07/01 05:00:33;;;;;;;10.75;6.22;;;;;;;;;;5070859;28;20408;-63
2022/07/01 05:02:59;;;;;;;9.85;6.63;;;;;;;;;;5070855;28;20025;-62
2022/07/01 05:05:25;;;;;;;14.88;6.65;;;;;;;;;;5070747;28;20096;-68
2022/07/01 05:07:51;;;;;;;12.35;7.13;;;;;;;;;;5070215;28;20205;-74
2022/07/01 05:10:17;;;;;;;15.38;6.97;;;;;;;;;;5070995;28;20104;-74
2022/07/01 05:12:43;;;;;;;10.55;6.90;;;;;;;;;;5070446;28;20083;-73
2022/07/01 05:15:09;;;;;;;9.77;7.47;;;;;;;;;;5052592;28;20056;-74
2022/07/01 05:23:05;;;;;;;18.35;7.57;;;;;;;;;;5070900;28;20052;-74
2022/07/01 05:25:31;;;;;;;8.82;7.00;;;;;;;;;;5070020;28;20029;-69
2022/07/01 05:27:57;;;;;;;9.60;6.07;;;;;;;;;;5065409;28;20433;-63
2022/07/01 05:30:23;;;;;;;11.40;6.60;;;;;;;;;;5065968;28;20480;-63
2022/07/01 05:32:49;;;;;;;11.27;6.82;;;;;;;;;;5070503;28;20032;-66
2022/07/01 05:35:15;;;;;;;9.82;7.18;;;;;;;;;;5070415;28;20031;-66
2022/07/01 05:37:42;;;;;;;12.93;6.50;;;;;;;;;;5070489;28;20068;-68
2022/07/01 05:40:08;;;;;;;13.30;6.45;;;;;;;;;;5052445;28;20448;-73
2022/07/01 05:42:34;;;;;;;7.78;5.82;;;;;;;;;;5070291;28;20530;-69
2022/07/01 05:45:00;;;;;;;9.25;5.90;;;;;;;;;;5070420;28;20032;-72
2022/07/01 05:47:27;;;;;;;10.25;5.75;;;;;;;;;;5072900;28;20040;-71
2022/07/01 05:49:53;;;;;;;11.40;5.70;;;;;;;;;;5074544;28;20025;-73
2022/07/01 05:52:19;;;;;;;10.20;5.95;;;;;;;;;;5073593;28;20020;-65
2022/07/01 05:54:45;;;;;;;10.60;5.88;;;;;;;;;;5073746;28;20092;-63
2022/07/01 05:57:12;;;;;;;11.15;5.50;;;;;;;;;;5073662;28;20453;-65
2022/07/01 05:59:38;;;;;;;8.00;5.25;;;;;;;;;;5073739;28;20025;-64
2022/07/01 06:02:04;;;;;;;14.00;8.82;;;;;;;;;;5073886;28;20021;-73
2022/07/01 06:04:30;;;;;;;28.05;17.58;;;;;;;;;;5073633;28;20531;-64
2022/07/01 06:06:56;;;;;;;15.10;10.73;;;;;;;;;;5073398;28;20465;-69
2022/07/01 06:09:22;;;;;;;11.30;6.90;;;;;;;;;;5073314;28;20025;-70
2022/07/01 06:11:49;;;;;;;10.75;7.43;;;;;;;;;;5073448;28;20024;-64
2022/07/01 06:14:15;;;;;;;14.80;7.85;;;;;;;;;;5073277;28;20380;-70
2022/07/01 06:16:41;;;;;;;10.23;7.30;;;;;;;;;;5073500;28;20020;-72
2022/07/01 06:19:07;;;;;;;9.30;6.25;;;;;;;;;;5055516;28;20439;-69
2022/07/01 06:21:33;;;;;;;10.25;6.20;;;;;;;;;;5072950;28;20032;-64
2022/07/01 06:23:59;;;;;;;10.73;6.30;;;;;;;;;;5072834;28;20100;-64
2022/07/01 06:26:25;;;;;;;10.63;6.18;;;;;;;;;;5073034;28;20024;-65
2022/07/01 06:28:52;;;;;;;11.73;6.72;;;;;;;;;;5072629;28;20454;-66
2022/07/01 06:31:18;;;;;;;14.27;6.97;;;;;;;;;;5073161;28;20459;-69
2022/07/01 06:33:44;;;;;;;13.30;7.00;;;;;;;;;;5072912;28;20032;-70
2022/07/01 06:36:10;;;;;;;12.60;6.30;;;;;;;;;;5073374;28;20025;-62
2022/07/01 06:38:36;;;;;;;17.00;6.85;;;;;;;;;;5073258;28;20017;-76
2022/07/01 06:43:47;;;;;;;13.35;6.32;;;;;;;;;;5072968;28;20035;-73
2022/07/01 06:46:13;;;;;;;14.80;7.13;;;;;;;;;;5072793;28;20021;-62
2022/07/01 06:48:39;;;;;;;12.75;7.00;;;;;;;;;;5064693;28;20033;-61
2022/07/01 06:51:05;;;;;;;11.85;6.10;;;;;;;;;;5072823;28;20035;-70
2022/07/01 06:53:31;;;;;;;16.27;6.75;;;;;;;;;;5068741;28;20039;-62
2022/07/01 06:55:57;;;;;;;13.70;6.43;;;;;;;;;;5072759;28;20029;-69
2022/07/01 06:58:24;;;;;;;11.10;6.63;;;;;;;;;;5069064;28;20043;-63
2022/07/01 07:00:50;;;;;;;8.77;6.30;;;;;;;;;;5072287;28;20016;-71
2022/07/01 07:03:16;;;;;;;10.52;6.60;;;;;;;;;;5072371;28;20412;-63
2022/07/01 07:05:42;;;;;;;9.82;6.03;;;;;;;;;;5074297;28;20026;-66
2022/07/01 07:08:08;;;;;;;12.38;6.22;;;;;;;;;;5071832;28;20480;-75
2022/07/01 07:10:34;;;;;;;9.10;5.43;;;;;;;;;;5072044;28;20135;-73
2022/07/01 07:13:00;;;;;;;10.45;6.47;;;;;;;;;;5071663;28;20460;-74
2022/07/01 07:15:26;;;;;;;8.30;6.25;;;;;;;;;;5071632;28;20035;-72
2022/07/01 07:17:54;;;;;;;6.90;5.80;;;;;;;;;;5071771;28;20025;-72
2022/07/01 07:20:20;;;;;;;12.10;6.38;;;;;;;;;;5071539;28;20028;-61
2022/07/01 07:22:46;;;;;;;11.68;6.18;;;;;;;;;;5071114;28;20025;-62
2022/07/01 07:25:12;;;;;;;13.05;6.07;;;;;;;;;;5071118;28;20044;-65
2022/07/01 07:27:38;;;;;;;11.00;6.53;;;;;;;;;;5060546;28;20053;-71
2022/07/01 07:30:04;;;;;;;11.20;5.88;;;;;;;;;;5052154;28;20033;-64
2022/07/01 07:32:30;;;;;;;7.90;5.63;;;;;;;;;;5071096;28;20491;-72
2022/07/01 07:34:56;;;;;;;11.32;6.45;;;;;;;;;;5071420;28;20024;-63
2022/07/01 07:37:22;;;;;;;11.70;6.95;;;;;;;;;;5071168;28;20031;-62
2022/07/01 07:39:48;;;;;;;10.35;6.05;;;;;;;;;;5071434;28;20024;-65
2022/07/01 07:42:14;;;;;;;12.73;6.32;;;;;;;;;;5071024;28;20506;-65
2022/07/01 07:44:40;;;;;;;10.02;5.57;;;;;;;;;;5070737;28;20484;-65
2022/07/01 07:47:06;;;;;;;9.43;5.68;;;;;;;;;;5053492;28;20036;-63
2022/07/01 07:49:32;;;;;;;11.48;6.30;;;;;;;;;;5070695;28;20079;-74
2022/07/01 07:51:58;;;;;;;11.10;5.85;;;;;;;;;;5069462;28;20516;-64
2022/07/01 07:54:25;;;;;;;10.90;6.15;;;;;;;;;;5055724;28;20052;-64
2022/07/01 07:56:51;;;;;;;12.93;5.40;;;;;;;;;;5065539;28;20504;-64
2022/07/01 07:59:17;;;;;;;9.07;5.32;;;;;;;;;;5070539;28;20044;-62
2022/07/01 08:01:43;;;;;;;11.90;5.60;;;;;;;;;;5070788;28;20027;-62
2022/07/01 08:04:09;;;;;;;9.55;5.43;;;;;;;;;;5071176;28;20055;-65
2022/07/01 08:06:35;;;;;;;8.13;5.68;;;;;;;;;;5041439;28;20477;-63
2022/07/01 08:09:01;;;;;;;10.38;5.40;;;;;;;;;;5065516;28;20040;-71
2022/07/01 08:11:27;;;;;;;13.38;5.35;;;;;;;;;;5071182;28;20051;-70
2022/07/01 08:13:53;;;;;;;14.10;5.80;;;;;;;;;;5070905;28;20020;-64
2022/07/01 08:16:20;;;;;;;9.25;5.82;;;;;;;;;;5071034;28;20100;-64
2022/07/01 08:18:46;;;;;;;10.48;5.65;;;;;;;;;;5070651;28;20043;-63
2022/07/01 08:21:12;;;;;;;8.60;5.43;;;;;;;;;;5070342;28;20387;-63
2022/07/01 08:23:38;;;;;;;12.73;5.22;;;;;;;;;;5062012;28;20048;-69
2022/07/01 08:26:04;;;;;;;10.02;5.47;;;;;;;;;;5070077;28;20111;-65
2022/07/01 08:28:30;;;;;;;10.60;5.55;;;;;;;;;;5058943;28;20076;-57
2022/07/01 08:30:57;;;;;;;20.83;5.88;;;;;;;;;;5065691;28;20053;-58
2022/07/01 08:33:23;;;;;;;8.75;5.47;;;;;;;;;;5070454;28;20032;-58
2022/07/01 08:35:49;;;;;;;13.35;5.90;;;;;;;;;;5070543;28;20021;-72
2022/07/01 08:38:15;;;;;;;24.90;6.50;;;;;;;;;;5070230;28;20064;-59
2022/07/01 08:40:41;;;;;;;21.90;6.47;;;;;;;;;;5070643;28;20029;-58
2022/07/01 08:43:07;;;;;;;10.32;5.03;;;;;;;;;;5070496;28;20024;-57
2022/07/01 08:45:35;;;;;;;62.58;9.07;;;;;;;;;;5070133;28;20024;-59
2022/07/01 08:48:02;;;;;;;95.97;12.77;;;;;;;;;;5070669;28;20041;-61
2022/07/01 08:50:32;;;;;;;15.18;5.50;;;;;;;;;;5070061;28;20074;-60
2022/07/01 08:52:58;;;;;;;13.68;5.60;;;;;;;;;;5070248;28;20483;-57
2022/07/01 08:55:25;;;;;;;8.50;4.70;;;;;;;;;;5070182;28;20036;-58
2022/07/01 08:57:51;;;;;;;58.33;8.88;;;;;;;;;;5070336;28;20038;-67
2022/07/01 09:00:17;;;;;;;154.00;19.90;;;;;;;;;;5070706;28;20025;-67
2022/07/01 09:02:53;;;;;;;68.20;10.95;;;;;;;;;;5070443;28;20029;-67
2022/07/01 09:05:20;;;;;;;33.05;7.07;;;;;;;;;;5070516;28;20060;-69
2022/07/01 09:07:47;;;;;;;167.52;26.23;;;;;;;;;;5070236;28;20468;-68
2022/07/01 09:10:20;;;;;;;8.30;4.97;;;;;;;;;;5070115;28;20033;-57
2022/07/01 09:12:47;;;;;;;101.07;18.80;;;;;;;;;;5070553;28;20029;-62
2022/07/01 09:15:27;;;;;;;134.70;23.15;;;;;;;;;;5070445;28;20021;-58
2022/07/01 09:18:13;;;;;;;21.23;6.55;;;;;;;;;;5070149;28;20429;-60
2022/07/01 09:20:43;;;;;;;9.50;4.93;;;;;;;;;;5071418;28;20033;-69
2022/07/01 09:23:14;;;;;;;76.32;16.38;;;;;;;;;;5063116;28;20354;-58
2022/07/01 09:25:40;;;;;;;16.60;6.22;;;;;;;;;;5057769;28;20048;-58
2022/07/01 09:28:09;;;;;;;126.18;26.67;;;;;;;;;;5073423;28;20044;-60
2022/07/01 09:30:35;;;;;;;10.25;4.78;;;;;;;;;;5074085;28;20128;-57
2022/07/01 09:33:05;;;;;;;269.20;46.95;;;;;;;;;;5073877;28;20032;-68
2022/07/01 09:35:32;;;;;;;14.32;5.35;;;;;;;;;;5073931;28;20021;-68
2022/07/01 09:37:58;;;;;;;12.93;4.53;;;;;;;;;;5073932;28;20024;-58
2022/07/01 09:40:24;;;;;;;27.52;7.55;;;;;;;;;;5073687;28;20036;-58
2022/07/01 09:42:50;;;;;;;110.57;22.17;;;;;;;;;;5073873;28;20020;-61
2022/07/01 09:45:16;;;;;;;33.97;8.82;;;;;;;;;;5073361;28;20464;-58
2022/07/01 09:47:43;;;;;;;77.45;17.42;;;;;;;;;;5073549;28;20068;-68
2022/07/01 09:50:10;;;;;;;10.73;4.50;;;;;;;;;;5073642;28;20016;-60
2022/07/01 09:52:36;;;;;;;37.95;11.57;;;;;;;;;;5073186;28;20025;-65
2022/07/01 09:55:03;;;;;;;204.80;37.78;;;;;;;;;;5073337;28;20060;-69
2022/07/01 09:57:29;;;;;;;10.48;4.70;;;;;;;;;;5073526;28;20043;-70
2022/07/01 09:59:55;;;;;;;64.07;14.88;;;;;;;;;;5073545;28;20091;-70
2022/07/01 10:02:22;;;;;;;124.72;29.67;;;;;;;;;;5073228;28;20033;-57
2022/07/01 10:04:56;;;;;;;120.55;28.55;;;;;;;;;;5073236;28;20019;-63
2022/07/01 10:07:30;;;;;;;67.95;17.95;;;;;;;;;;5073157;28;20040;-59
2022/07/01 10:10:03;;;;;;;166.80;39.70;;;;;;;;;;5073381;28;20468;-58
2022/07/01 10:12:38;;;;;;;41.80;11.20;;;;;;;;;;5072986;28;20028;-71
2022/07/01 10:15:06;;;;;;;208.05;48.35;;;;;;;;;;5072789;28;20032;-59
2022/07/01 10:17:35;;;;;;;180.55;44.08;;;;;;;;;;5072985;28;20119;-61
2022/07/01 10:20:15;;;;;;;210.43;52.47;;;;;;;;;;5072921;28;20020;-69
2022/07/01 10:22:42;;;;;;;75.63;23.38;;;;;;;;;;5066204;28;20104;-65
2022/07/01 10:25:26;;;;;;;11.05;4.65;;;;;;;;;;5068795;28;20027;-58
2022/07/01 10:28:11;;;;;;;142.20;39.13;;;;;;;;;;5058151;28;20400;-58
2022/07/01 10:30:48;;;;;;;47.53;17.15;;;;;;;;;;5072814;28;20044;-58
2022/07/01 10:33:27;;;;;;;130.27;38.30;;;;;;;;;;5071782;28;20063;-58
2022/07/01 10:35:53;;;;;;;19.83;7.82;;;;;;;;;;5072896;28;20024;-58
2022/07/01 10:38:19;;;;;;;52.53;18.40;;;;;;;;;;5072909;28;20024;-68
2022/07/01 10:40:47;;;;;;;27.33;10.35;;;;;;;;;;5072485;28;20060;-58
2022/07/01 10:43:17;;;;;;;131.23;41.03;;;;;;;;;;5072267;28;20013;-58
2022/07/01 10:45:46;;;;;;;91.10;26.02;;;;;;;;;;5072418;28;20111;-58
2022/07/01 10:48:20;;;;;;;39.33;11.55;;;;;;;;;;5072424;28;20089;-58
2022/07/01 10:50:47;;;;;;;131.18;24.58;;;;;;;;;;5072440;28;20039;-68
2022/07/01 10:53:13;;;;;;;450.42;81.55;;;;;;;;;;5061025;28;20484;-58
2022/07/01 10:55:40;;;;;;;538.05;95.22;;;;;;;;;;5072186;28;20414;-58
2022/07/01 10:58:06;;;;;;;440.13;78.65;;;;;;;;;;5072334;28;20043;-59
2022/07/01 11:00:34;;;;;;;501.85;94.78;;;;;;;;;;5071940;28;20102;-69
2022/07/01 11:03:26;;;;;;;307.02;60.47;;;;;;;;;;5071982;28;20063;-70
2022/07/01 11:05:54;;;;;;;350.10;69.10;;;;;;;;;;5056475;28;20118;-59
2022/07/01 11:08:20;;;;;;;130.10;27.30;;;;;;;;;;5071722;28;20032;-71
2022/07/01 11:10:49;;;;;;;10.55;4.90;;;;;;;;;;5061362;28;20013;-59
2022/07/01 11:13:15;;;;;;;15.82;5.95;;;;;;;;;;5069296;28;20174;-59
2022/07/01 11:15:42;;;;;;;4.82;3.42;;;;;;;;;;5071770;28;20440;-74
2022/07/01 11:18:08;;;;;;;228.48;46.40;;;;;;;;;;5071646;28;20051;-59
2022/07/01 11:20:35;;;;;;;122.53;26.77;;;;;;;;;;5068892;28;20033;-59
2022/07/01 11:23:01;;;;;;;7.57;3.53;;;;;;;;;;5062492;28;20029;-59
2022/07/01 11:25:27;;;;;;;5.35;3.10;;;;;;;;;;5069861;28;20490;-66
2022/07/01 11:27:53;;;;;;;11.45;4.18;;;;;;;;;;5051135;28;20076;-59
2022/07/01 11:30:20;;;;;;;178.77;24.10;;;;;;;;;;5071477;28;20040;-74
2022/07/01 11:32:48;;;;;;;71.65;11.63;;;;;;;;;;5071498;28;20035;-61
2022/07/01 11:41:01;;;;;;;52.97;9.88;;;;;;;;;;5070668;28;20054;-57
2022/07/01 11:43:34;;;;;;;179.85;26.88;;;;;;;;;;5070327;28;20029;-57
2022/07/01 11:46:01;;;;;;;349.67;51.47;;;;;;;;;;5068505;28;20035;-71
2022/07/01 11:48:38;;;;;;;345.10;51.83;;;;;;;;;;5069841;28;20049;-57
2022/07/01 11:51:15;;;;;;;320.42;48.53;;;;;;;;;;5070939;28;20021;-58
2022/07/01 11:53:42;;;;;;;91.35;15.50;;;;;;;;;;5065354;28;20483;-57
2022/07/01 11:56:08;;;;;;;88.10;16.92;;;;;;;;;;5071235;28;20077;-60
2022/07/01 11:58:41;;;;;;;80.72;17.20;;;;;;;;;;5070800;28;20032;-62
2022/07/01 12:01:08;;;;;;;142.20;25.92;;;;;;;;;;5070496;28;20059;-58
2022/07/01 12:03:35;;;;;;;241.52;37.35;;;;;;;;;;5070727;28;20027;-59
2022/07/01 12:06:01;;;;;;;284.00;39.22;;;;;;;;;;5071057;28;20484;-59
2022/07/01 12:08:27;;;;;;;40.78;8.68;;;;;;;;;;5070808;28;20037;-59
2022/07/01 12:10:54;;;;;;;245.65;30.15;;;;;;;;;;5071025;28;20501;-66
2022/07/01 12:13:21;;;;;;;259.38;33.05;;;;;;;;;;5070804;28;20035;-71
2022/07/01 12:15:47;;;;;;;249.48;30.48;;;;;;;;;;5070536;28;20020;-57
2022/07/01 12:18:13;;;;;;;479.40;54.63;;;;;;;;;;5071208;28;20028;-69
2022/07/01 12:20:39;;;;;;;82.05;10.73;;;;;;;;;;5070649;28;20102;-60
2022/07/01 12:23:12;;;;;;;286.38;33.88;;;;;;;;;;5061493;28;20021;-66
2022/07/01 12:25:39;;;;;;;193.77;23.55;;;;;;;;;;5054321;28;20027;-57
2022/07/01 12:28:05;;;;;;;137.30;17.48;;;;;;;;;;5070501;28;20084;-66
2022/07/01 12:30:33;;;;;;;185.55;24.33;;;;;;;;;;5070946;28;20029;-57
2022/07/01 12:32:59;;;;;;;258.38;35.05;;;;;;;;;;5070581;28;20056;-57
2022/07/01 12:35:34;;;;;;;56.50;9.70;;;;;;;;;;5070421;28;20025;-60
2022/07/01 12:38:01;;;;;;;81.43;12.38;;;;;;;;;;5070750;28;20465;-57
2022/07/01 12:40:28;;;;;;;104.95;16.13;;;;;;;;;;5070312;28;20036;-70
2022/07/01 12:42:54;;;;;;;214.48;30.38;;;;;;;;;;5070677;28;20021;-57
2022/07/01 12:45:24;;;;;;;67.57;11.95;;;;;;;;;;5070482;28;20039;-57
2022/07/01 12:47:51;;;;;;;155.68;23.52;;;;;;;;;;5070147;28;20444;-57
2022/07/01 12:50:20;;;;;;;34.75;6.78;;;;;;;;;;5070166;28;20029;-67
2022/07/01 12:53:05;;;;;;;183.05;26.95;;;;;;;;;;5070737;28;20021;-64
2022/07/01 12:55:33;;;;;;;49.55;9.07;;;;;;;;;;5071309;28;20098;-57
2022/07/01 12:57:59;;;;;;;225.32;29.10;;;;;;;;;;5074336;28;20033;-70
2022/07/01 13:00:27;;;;;;;305.23;37.40;;;;;;;;;;5074642;28;20083;-72
2022/07/01 13:02:57;;;;;;;531.53;58.65;;;;;;;;;;5077356;28;20116;-75
2022/07/01 13:05:27;;;;;;;196.40;22.67;;;;;;;;;;5071936;28;20032;-66
2022/07/01 13:07:53;;;;;;;479.80;54.15;;;;;;;;;;5074462;28;20051;-71
2022/07/01 13:10:19;;;;;;;81.60;10.45;;;;;;;;;;5074337;28;20035;-69
2022/07/01 13:12:46;;;;;;;296.73;36.38;;;;;;;;;;5074259;28;20025;-70
2022/07/01 13:15:12;;;;;;;415.92;49.42;;;;;;;;;;5074239;28;20115;-65
2022/07/01 13:17:38;;;;;;;325.98;41.33;;;;;;;;;;5074145;28;20020;-67
2022/07/01 13:20:06;;;;;;;193.80;25.83;;;;;;;;;;5074019;28;20372;-60
2022/07/01 13:22:32;;;;;;;143.68;19.35;;;;;;;;;;5069092;28;20033;-58
2022/07/01 13:24:58;;;;;;;204.07;29.42;;;;;;;;;;5067391;28;20025;-57
2022/07/01 13:27:24;;;;;;;270.10;36.88;;;;;;;;;;5073110;28;20029;-59
2022/07/01 13:29:50;;;;;;;114.40;16.38;;;;;;;;;;5073449;28;20387;-67
2022/07/01 13:32:17;;;;;;;62.55;10.30;;;;;;;;;;5070691;28;20421;-60
2022/07/01 13:34:43;;;;;;;141.15;20.75;;;;;;;;;;5073703;28;20496;-67
2022/07/01 13:37:09;;;;;;;225.75;31.35;;;;;;;;;;5071582;28;20361;-62
2022/07/01 13:39:35;;;;;;;142.07;22.55;;;;;;;;;;5073400;28;20108;-58
2022/07/01 13:42:01;;;;;;;93.07;15.30;;;;;;;;;;5072809;28;20020;-71
2022/07/01 13:44:27;;;;;;;50.38;9.00;;;;;;;;;;5073558;28;20032;-67
2022/07/01 13:46:53;;;;;;;97.63;15.07;;;;;;;;;;5073468;28;20483;-58
2022/07/01 13:49:19;;;;;;;149.18;20.15;;;;;;;;;;5073461;28;20028;-57
2022/07/01 13:51:45;;;;;;;233.38;28.75;;;;;;;;;;5073541;28;20126;-70
2022/07/01 13:54:11;;;;;;;152.32;19.63;;;;;;;;;;5076552;28;20039;-59
2022/07/01 13:56:37;;;;;;;453.23;51.05;;;;;;;;;;5073378;28;20023;-60
2022/07/01 13:59:04;;;;;;;352.02;37.70;;;;;;;;;;5073174;28;20103;-69
2022/07/01 14:01:31;;;;;;;635.45;65.55;;;;;;;;;;5073470;28;20407;-67
2022/07/01 14:03:57;;;;;;;196.70;23.05;;;;;;;;;;5073647;28;20044;-62
2022/07/01 14:06:23;;;;;;;618.65;65.20;;;;;;;;;;5072540;28;20039;-60
2022/07/01 14:08:49;;;;;;;561.42;59.38;;;;;;;;;;5072708;28;20032;-60
2022/07/01 14:11:15;;;;;;;527.72;56.72;;;;;;;;;;5073605;28;20028;-69
2022/07/01 14:13:41;;;;;;;480.02;52.80;;;;;;;;;;5073239;28;20066;-63
2022/07/01 14:16:08;;;;;;;411.73;45.55;;;;;;;;;;5073000;28;20104;-67
2022/07/01 14:18:34;;;;;;;31.00;6.15;;;;;;;;;;5072960;28;20024;-60
2022/07/01 14:21:04;;;;;;;250.75;29.35;;;;;;;;;;5073223;28;20082;-68
2022/07/01 14:23:31;;;;;;;216.77;27.75;;;;;;;;;;5063221;28;20538;-70
2022/07/01 14:25:57;;;;;;;99.00;16.05;;;;;;;;;;5072807;28;20036;-69
2022/07/01 14:28:23;;;;;;;202.52;27.27;;;;;;;;;;5072251;28;20052;-60
2022/07/01 14:30:49;;;;;;;180.95;24.50;;;;;;;;;;5072791;28;20496;-66
2022/07/01 14:33:16;;;;;;;157.52;23.13;;;;;;;;;;5073206;28;20028;-67
2022/07/01 14:35:42;;;;;;;109.15;18.40;;;;;;;;;;5073047;28;20330;-67
2022/07/01 14:38:08;;;;;;;111.20;17.33;;;;;;;;;;5072984;28;20029;-62
2022/07/01 14:40:35;;;;;;;83.13;14.77;;;;;;;;;;5072915;28;20070;-67
2022/07/01 14:43:02;;;;;;;7.70;3.88;;;;;;;;;;5072714;28;20017;-61
2022/07/01 14:45:28;;;;;;;45.83;9.60;;;;;;;;;;5072299;28;20028;-59